Portada
METAR-TAF:

METAR-TAF

Aeroports :

Ahwaz, Iran

latitud: 31-20N, longitud: 048-40E, altitud: 20 m

Observació

L'informe es va fer fa 27 minuts, a les 08:00 UTC
Vent 12 kt del Oest
Temperatura 40°C
Humitat 19%
Pressió 996 hPa
Visibilitat 10 km o més
Escasses núvols a una alçada de 4000 ft
Núvols disperses a una alçada de 10000 ft

METAR: OIAW 170800Z 28012KT 9999 FEW040 SCT100 40/12 Q0996 NOSIG

Hora: 12:57 (08:27 UTC)

Pronòstic

L'informe es va fer fa 3 hores i 17 minuts, a les 05:10 UTC
Pronòstic vàlid del 17 a les 06 UTC al 18 a les 12 UTC
Vent 12 kt del Oest/Nord-Oest
Visibilitat: 7000 m
Temporalment
l' 17 a les 08 UTC al 17 a les 15 UTC
Vent 25 kt del Oest/Nord-Oest
Visibilitat: 3000 m
sorra
Evolucionant progressivament
l' 18 a les 00 UTC al 18 a les 02 UTC
Vent 6 kt del Oest/Nord-Oest

TAF: OIAW 170510Z 1706/1812 29012KT 7000 NSC TEMPO 1708/1715 29025KT 3000 SA BECMG 1800/1802 29006KT

Observacions i pronòstics meteorològics de més de 4000 aeroports (METAR i TAF).

Les estacions disponibles són els punts grocs i vermells al mapa.

Posi el ratolí al punt desitjat per veure el nom de l'estació.

Feu clic per veure les observacions i els pronòstics meteorològics.

Per canviar el mapa: feu clic els botons verds amb una creu de color negre per apropar; al botó verd amb un guió per allunyar la imatge; o en les fletxes verdes per a mapes adjacents.


METAR-TAF: